sensor_id;sensor_type;location;lat;lon;timestamp;temperature;humidity
3684;DHT22;1858;48.716;9.648;2023-06-10T00:00:09;17.30;99.90
3684;DHT22;1858;48.716;9.648;2023-06-10T00:02:39;17.30;99.90
3684;DHT22;1858;48.716;9.648;2023-06-10T00:05:07;17.30;99.90
3684;DHT22;1858;48.716;9.648;2023-06-10T00:07:37;17.30;99.90
3684;DHT22;1858;48.716;9.648;2023-06-10T00:10:06;17.20;99.90
3684;DHT22;1858;48.716;9.648;2023-06-10T00:12:35;17.20;99.90
3684;DHT22;1858;48.716;9.648;2023-06-10T00:15:06;17.10;99.90
3684;DHT22;1858;48.716;9.648;2023-06-10T00:17:35;17.10;99.90
3684;DHT22;1858;48.716;9.648;2023-06-10T00:22:54;17.00;99.90
3684;DHT22;1858;48.716;9.648;2023-06-10T00:28:05;16.90;99.90
3684;DHT22;1858;48.716;9.648;2023-06-10T00:30:33;16.90;99.90
3684;DHT22;1858;48.716;9.648;2023-06-10T00:33:02;16.90;99.90
3684;DHT22;1858;48.716;9.648;2023-06-10T00:35:30;16.80;99.90
3684;DHT22;1858;48.716;9.648;2023-06-10T00:37:59;16.80;99.90
3684;DHT22;1858;48.716;9.648;2023-06-10T00:40:27;16.70;99.90
3684;DHT22;1858;48.716;9.648;2023-06-10T00:42:55;16.70;1.00
3684;DHT22;1858;48.716;9.648;2023-06-10T00:45:24;16.70;1.00
3684;DHT22;1858;48.716;9.648;2023-06-10T00:47:52;16.70;1.00
3684;DHT22;1858;48.716;9.648;2023-06-10T00:50:21;16.70;1.00
3684;DHT22;1858;48.716;9.648;2023-06-10T00:52:50;16.70;1.00
3684;DHT22;1858;48.716;9.648;2023-06-10T00:55:18;16.60;1.00
3684;DHT22;1858;48.716;9.648;2023-06-10T00:57:47;16.60;1.00
3684;DHT22;1858;48.716;9.648;2023-06-10T01:00:39;16.60;1.00
3684;DHT22;1858;48.716;9.648;2023-06-10T01:03:07;16.60;1.00
3684;DHT22;1858;48.716;9.648;2023-06-10T01:05:36;16.50;1.00
3684;DHT22;1858;48.716;9.648;2023-06-10T01:08:31;16.40;1.00
3684;DHT22;1858;48.716;9.648;2023-06-10T01:11:00;16.40;1.00
3684;DHT22;1858;48.716;9.648;2023-06-10T01:13:29;16.40;1.00
3684;DHT22;1858;48.716;9.648;2023-06-10T01:16:19;16.40;1.00
3684;DHT22;1858;48.716;9.648;2023-06-10T01:18:48;16.40;1.00
3684;DHT22;1858;48.716;9.648;2023-06-10T01:21:23;16.40;1.00
3684;DHT22;1858;48.716;9.648;2023-06-10T01:23:55;16.40;1.00
3684;DHT22;1858;48.716;9.648;2023-06-10T01:26:28;16.40;1.00
3684;DHT22;1858;48.716;9.648;2023-06-10T01:29:02;16.30;1.00
3684;DHT22;1858;48.716;9.648;2023-06-10T01:31:43;16.30;1.00
3684;DHT22;1858;48.716;9.648;2023-06-10T01:34:16;16.30;1.00
3684;DHT22;1858;48.716;9.648;2023-06-10T01:36:46;16.40;1.00
3684;DHT22;1858;48.716;9.648;2023-06-10T01:39:17;16.30;1.00
3684;DHT22;1858;48.716;9.648;2023-06-10T01:41:48;16.30;1.00
3684;DHT22;1858;48.716;9.648;2023-06-10T01:44:21;16.30;1.00
3684;DHT22;1858;48.716;9.648;2023-06-10T01:46:49;16.20;1.00
3684;DHT22;1858;48.716;9.648;2023-06-10T01:49:18;16.20;1.00
3684;DHT22;1858;48.716;9.648;2023-06-10T01:51:46;16.20;1.00
3684;DHT22;1858;48.716;9.648;2023-06-10T01:54:15;16.20;1.00
3684;DHT22;1858;48.716;9.648;2023-06-10T01:56:43;16.20;1.00
3684;DHT22;1858;48.716;9.648;2023-06-10T01:59:12;16.20;1.00
3684;DHT22;1858;48.716;9.648;2023-06-10T02:01:46;16.10;1.00
3684;DHT22;1858;48.716;9.648;2023-06-10T02:04:34;16.10;1.00
3684;DHT22;1858;48.716;9.648;2023-06-10T02:07:02;16.00;1.00
3684;DHT22;1858;48.716;9.648;2023-06-10T02:09:31;15.90;1.00
3684;DHT22;1858;48.716;9.648;2023-06-10T02:12:03;15.80;1.00
3684;DHT22;1858;48.716;9.648;2023-06-10T02:14:33;15.90;1.00
3684;DHT22;1858;48.716;9.648;2023-06-10T02:17:02;15.90;1.00
3684;DHT22;1858;48.716;9.648;2023-06-10T02:19:31;15.90;1.00
3684;DHT22;1858;48.716;9.648;2023-06-10T02:22:02;15.90;1.00
3684;DHT22;1858;48.716;9.648;2023-06-10T02:24:30;15.80;1.00
3684;DHT22;1858;48.716;9.648;2023-06-10T02:26:58;15.80;1.00
3684;DHT22;1858;48.716;9.648;2023-06-10T02:29:27;15.80;1.00
3684;DHT22;1858;48.716;9.648;2023-06-10T02:32:15;15.80;1.00
3684;DHT22;1858;48.716;9.648;2023-06-10T02:34:43;15.70;1.00
3684;DHT22;1858;48.716;9.648;2023-06-10T02:37:13;15.80;1.00
3684;DHT22;1858;48.716;9.648;2023-06-10T02:39:42;15.80;1.00
3684;DHT22;1858;48.716;9.648;2023-06-10T02:42:10;15.80;1.00
3684;DHT22;1858;48.716;9.648;2023-06-10T02:44:38;15.80;1.00
3684;DHT22;1858;48.716;9.648;2023-06-10T02:47:07;15.80;1.00
3684;DHT22;1858;48.716;9.648;2023-06-10T02:49:55;15.80;1.00
3684;DHT22;1858;48.716;9.648;2023-06-10T02:52:23;15.70;1.00
3684;DHT22;1858;48.716;9.648;2023-06-10T02:54:52;15.50;1.00
3684;DHT22;1858;48.716;9.648;2023-06-10T02:57:20;15.50;1.00
3684;DHT22;1858;48.716;9.648;2023-06-10T02:59:49;15.50;1.00
3684;DHT22;1858;48.716;9.648;2023-06-10T03:02:37;15.50;1.00
3684;DHT22;1858;48.716;9.648;2023-06-10T03:05:25;15.60;1.00
3684;DHT22;1858;48.716;9.648;2023-06-10T03:07:53;15.60;1.00
3684;DHT22;1858;48.716;9.648;2023-06-10T03:10:41;15.60;1.00
3684;DHT22;1858;48.716;9.648;2023-06-10T03:13:10;15.60;1.00
3684;DHT22;1858;48.716;9.648;2023-06-10T03:15:38;15.50;1.00
3684;DHT22;1858;48.716;9.648;2023-06-10T03:18:08;15.50;1.00
3684;DHT22;1858;48.716;9.648;2023-06-10T03:20:36;15.50;1.00
3684;DHT22;1858;48.716;9.648;2023-06-10T03:23:05;15.60;1.00
3684;DHT22;1858;48.716;9.648;2023-06-10T03:25:36;15.60;1.00
3684;DHT22;1858;48.716;9.648;2023-06-10T03:28:05;15.50;1.00
3684;DHT22;1858;48.716;9.648;2023-06-10T03:30:33;15.50;1.00
3684;DHT22;1858;48.716;9.648;2023-06-10T03:33:02;15.50;1.00
3684;DHT22;1858;48.716;9.648;2023-06-10T03:35:30;15.60;1.00
3684;DHT22;1858;48.716;9.648;2023-06-10T03:38:02;15.60;7.30
3684;DHT22;1858;48.716;9.648;2023-06-10T03:40:30;15.50;3.00
3684;DHT22;1858;48.716;9.648;2023-06-10T03:43:00;15.50;8.10
3684;DHT22;1858;48.716;9.648;2023-06-10T03:45:28;15.50;13.50
3684;DHT22;1858;48.716;9.648;2023-06-10T03:47:57;15.50;20.00
3684;DHT22;1858;48.716;9.648;2023-06-10T03:50:25;15.40;43.10
3684;DHT22;1858;48.716;9.648;2023-06-10T03:52:54;15.40;55.40
3684;DHT22;1858;48.716;9.648;2023-06-10T03:55:22;15.40;93.50
3684;DHT22;1858;48.716;9.648;2023-06-10T03:57:51;15.40;99.90
3684;DHT22;1858;48.716;9.648;2023-06-10T04:00:19;15.40;99.90
3684;DHT22;1858;48.716;9.648;2023-06-10T04:02:49;15.50;99.90
3684;DHT22;1858;48.716;9.648;2023-06-10T04:05:20;15.50;99.90
3684;DHT22;1858;48.716;9.648;2023-06-10T04:07:49;15.50;99.90
3684;DHT22;1858;48.716;9.648;2023-06-10T04:10:18;15.60;99.90
3684;DHT22;1858;48.716;9.648;2023-06-10T04:12:46;15.60;99.90
3684;DHT22;1858;48.716;9.648;2023-06-10T04:15:15;15.70;99.90
3684;DHT22;1858;48.716;9.648;2023-06-10T04:17:43;15.70;99.90
3684;DHT22;1858;48.716;9.648;2023-06-10T04:20:12;15.70;99.90
3684;DHT22;1858;48.716;9.648;2023-06-10T04:22:40;15.80;99.90
3684;DHT22;1858;48.716;9.648;2023-06-10T04:25:09;15.90;99.90
3684;DHT22;1858;48.716;9.648;2023-06-10T04:27:38;15.90;99.90
3684;DHT22;1858;48.716;9.648;2023-06-10T04:30:07;16.00;99.90
3684;DHT22;1858;48.716;9.648;2023-06-10T04:32:36;16.10;99.90
3684;DHT22;1858;48.716;9.648;2023-06-10T04:37:55;16.10;99.90
3684;DHT22;1858;48.716;9.648;2023-06-10T04:40:23;16.20;99.90
3684;DHT22;1858;48.716;9.648;2023-06-10T04:42:52;16.30;99.90
3684;DHT22;1858;48.716;9.648;2023-06-10T04:45:20;16.30;99.90
3684;DHT22;1858;48.716;9.648;2023-06-10T04:47:48;16.30;99.90
3684;DHT22;1858;48.716;9.648;2023-06-10T04:50:17;16.40;99.90
3684;DHT22;1858;48.716;9.648;2023-06-10T04:52:46;16.50;99.90
3684;DHT22;1858;48.716;9.648;2023-06-10T04:55:15;16.60;99.90
3684;DHT22;1858;48.716;9.648;2023-06-10T04:57:43;16.60;99.90
3684;DHT22;1858;48.716;9.648;2023-06-10T05:00:13;16.70;99.90
3684;DHT22;1858;48.716;9.648;2023-06-10T05:02:41;16.80;99.90
3684;DHT22;1858;48.716;9.648;2023-06-10T05:05:10;16.80;99.90
3684;DHT22;1858;48.716;9.648;2023-06-10T05:07:58;16.80;14.70
3684;DHT22;1858;48.716;9.648;2023-06-10T05:10:26;16.80;59.10
3684;DHT22;1858;48.716;9.648;2023-06-10T05:12:57;16.90;21.20
3684;DHT22;1858;48.716;9.648;2023-06-10T05:15:26;17.00;1.00
3684;DHT22;1858;48.716;9.648;2023-06-10T05:17:56;17.00;1.00
3684;DHT22;1858;48.716;9.648;2023-06-10T05:20:26;17.00;1.00
3684;DHT22;1858;48.716;9.648;2023-06-10T05:22:55;17.20;30.60
3684;DHT22;1858;48.716;9.648;2023-06-10T05:25:26;17.30;31.30
3684;DHT22;1858;48.716;9.648;2023-06-10T05:27:54;17.40;58.60
3684;DHT22;1858;48.716;9.648;2023-06-10T05:30:23;17.60;99.90
3684;DHT22;1858;48.716;9.648;2023-06-10T05:35:42;17.80;1.00
3684;DHT22;1858;48.716;9.648;2023-06-10T05:38:10;17.90;1.00
3684;DHT22;1858;48.716;9.648;2023-06-10T05:40:38;18.00;1.00
3684;DHT22;1858;48.716;9.648;2023-06-10T05:43:07;18.10;1.00
3684;DHT22;1858;48.716;9.648;2023-06-10T05:45:37;18.30;1.00
3684;DHT22;1858;48.716;9.648;2023-06-10T05:48:07;18.40;1.00
3684;DHT22;1858;48.716;9.648;2023-06-10T05:50:36;18.40;1.00
3684;DHT22;1858;48.716;9.648;2023-06-10T05:53:06;18.50;1.00
3684;DHT22;1858;48.716;9.648;2023-06-10T05:55:35;18.60;1.00
3684;DHT22;1858;48.716;9.648;2023-06-10T05:58:04;18.80;1.00
3684;DHT22;1858;48.716;9.648;2023-06-10T06:00:32;19.00;1.00
3684;DHT22;1858;48.716;9.648;2023-06-10T06:03:00;19.10;1.00
3684;DHT22;1858;48.716;9.648;2023-06-10T06:05:29;19.30;1.00
3684;DHT22;1858;48.716;9.648;2023-06-10T06:07:59;19.50;1.00
3684;DHT22;1858;48.716;9.648;2023-06-10T06:10:28;19.70;1.00
3684;DHT22;1858;48.716;9.648;2023-06-10T06:12:57;19.90;1.00
3684;DHT22;1858;48.716;9.648;2023-06-10T06:15:25;20.20;99.90
3684;DHT22;1858;48.716;9.648;2023-06-10T06:17:53;20.40;99.90
3684;DHT22;1858;48.716;9.648;2023-06-10T06:20:23;20.90;99.90
3684;DHT22;1858;48.716;9.648;2023-06-10T06:22:54;21.20;99.90
3684;DHT22;1858;48.716;9.648;2023-06-10T06:25:22;21.50;99.90
3684;DHT22;1858;48.716;9.648;2023-06-10T06:27:50;22.00;99.90
3684;DHT22;1858;48.716;9.648;2023-06-10T06:30:19;22.70;99.90
3684;DHT22;1858;48.716;9.648;2023-06-10T06:32:47;23.50;99.90
3684;DHT22;1858;48.716;9.648;2023-06-10T06:35:15;24.20;99.90
3684;DHT22;1858;48.716;9.648;2023-06-10T06:37:44;25.40;99.90
3684;DHT22;1858;48.716;9.648;2023-06-10T06:40:13;26.80;99.90
3684;DHT22;1858;48.716;9.648;2023-06-10T06:42:41;28.30;91.90
3684;DHT22;1858;48.716;9.648;2023-06-10T06:45:29;29.80;28.00
3684;DHT22;1858;48.716;9.648;2023-06-10T06:47:57;31.20;1.00
3684;DHT22;1858;48.716;9.648;2023-06-10T06:50:26;32.60;1.00
3684;DHT22;1858;48.716;9.648;2023-06-10T06:52:54;33.80;1.00
3684;DHT22;1858;48.716;9.648;2023-06-10T06:55:24;34.60;1.00
3684;DHT22;1858;48.716;9.648;2023-06-10T06:57:52;35.50;1.00
3684;DHT22;1858;48.716;9.648;2023-06-10T07:00:21;36.20;1.00
3684;DHT22;1858;48.716;9.648;2023-06-10T07:02:49;36.90;1.00
3684;DHT22;1858;48.716;9.648;2023-06-10T07:05:18;37.60;1.00
3684;DHT22;1858;48.716;9.648;2023-06-10T07:07:46;38.40;1.00
3684;DHT22;1858;48.716;9.648;2023-06-10T07:10:15;38.70;1.00
3684;DHT22;1858;48.716;9.648;2023-06-10T07:12:44;39.10;1.00
3684;DHT22;1858;48.716;9.648;2023-06-10T07:15:12;39.50;1.00
3684;DHT22;1858;48.716;9.648;2023-06-10T07:17:41;40.10;1.00
3684;DHT22;1858;48.716;9.648;2023-06-10T07:20:10;40.60;1.00
3684;DHT22;1858;48.716;9.648;2023-06-10T07:22:39;40.60;1.00
3684;DHT22;1858;48.716;9.648;2023-06-10T07:25:08;40.90;1.00
3684;DHT22;1858;48.716;9.648;2023-06-10T07:27:37;41.50;1.00
3684;DHT22;1858;48.716;9.648;2023-06-10T07:30:06;42.00;1.00
3684;DHT22;1858;48.716;9.648;2023-06-10T07:32:35;42.60;1.00
3684;DHT22;1858;48.716;9.648;2023-06-10T07:35:06;43.10;1.00
3684;DHT22;1858;48.716;9.648;2023-06-10T07:37:34;43.40;99.90
3684;DHT22;1858;48.716;9.648;2023-06-10T07:40:04;43.60;99.90
3684;DHT22;1858;48.716;9.648;2023-06-10T07:42:34;43.40;99.90
3684;DHT22;1858;48.716;9.648;2023-06-10T07:48:12;43.00;99.90
3684;DHT22;1858;48.716;9.648;2023-06-10T07:50:41;42.80;99.90
3684;DHT22;1858;48.716;9.648;2023-06-10T07:53:09;42.70;99.90
3684;DHT22;1858;48.716;9.648;2023-06-10T07:55:40;43.10;99.90
3684;DHT22;1858;48.716;9.648;2023-06-10T07:58:09;43.60;99.90
3684;DHT22;1858;48.716;9.648;2023-06-10T08:00:38;44.00;99.90
3684;DHT22;1858;48.716;9.648;2023-06-10T08:03:08;44.60;99.90
3684;DHT22;1858;48.716;9.648;2023-06-10T08:05:36;45.10;99.90
3684;DHT22;1858;48.716;9.648;2023-06-10T08:08:06;45.70;99.90
3684;DHT22;1858;48.716;9.648;2023-06-10T08:10:34;46.40;99.90
3684;DHT22;1858;48.716;9.648;2023-06-10T08:13:03;47.00;99.90
3684;DHT22;1858;48.716;9.648;2023-06-10T08:15:31;46.60;99.90
3684;DHT22;1858;48.716;9.648;2023-06-10T08:18:00;46.70;99.90
3684;DHT22;1858;48.716;9.648;2023-06-10T08:20:28;46.80;99.90
3684;DHT22;1858;48.716;9.648;2023-06-10T08:22:57;46.40;99.90
3684;DHT22;1858;48.716;9.648;2023-06-10T08:25:25;46.00;99.90
3684;DHT22;1858;48.716;9.648;2023-06-10T08:27:54;46.20;99.90
3684;DHT22;1858;48.716;9.648;2023-06-10T08:30:24;45.90;99.90
3684;DHT22;1858;48.716;9.648;2023-06-10T08:32:52;45.60;99.90
3684;DHT22;1858;48.716;9.648;2023-06-10T08:35:20;45.60;99.90
3684;DHT22;1858;48.716;9.648;2023-06-10T08:37:49;45.30;99.90
3684;DHT22;1858;48.716;9.648;2023-06-10T08:40:18;45.00;99.90
3684;DHT22;1858;48.716;9.648;2023-06-10T08:43:00;45.40;99.90
3684;DHT22;1858;48.716;9.648;2023-06-10T08:45:31;46.00;99.90
3684;DHT22;1858;48.716;9.648;2023-06-10T08:48:00;46.10;99.90
3684;DHT22;1858;48.716;9.648;2023-06-10T08:50:29;44.70;99.90
3684;DHT22;1858;48.716;9.648;2023-06-10T08:52:58;43.20;99.90
3684;DHT22;1858;48.716;9.648;2023-06-10T08:55:30;42.10;99.90
3684;DHT22;1858;48.716;9.648;2023-06-10T08:58:00;42.20;99.90
3684;DHT22;1858;48.716;9.648;2023-06-10T09:00:30;42.90;99.90
3684;DHT22;1858;48.716;9.648;2023-06-10T09:03:00;43.60;99.90
3684;DHT22;1858;48.716;9.648;2023-06-10T09:05:49;44.40;99.90
3684;DHT22;1858;48.716;9.648;2023-06-10T09:08:18;44.80;99.90
3684;DHT22;1858;48.716;9.648;2023-06-10T09:10:47;44.70;99.90
3684;DHT22;1858;48.716;9.648;2023-06-10T09:13:16;44.00;99.90
3684;DHT22;1858;48.716;9.648;2023-06-10T09:15:46;43.20;99.90
3684;DHT22;1858;48.716;9.648;2023-06-10T09:18:16;41.40;99.90
3684;DHT22;1858;48.716;9.648;2023-06-10T09:20:45;40.10;99.90
3684;DHT22;1858;48.716;9.648;2023-06-10T09:23:15;39.30;99.90
3684;DHT22;1858;48.716;9.648;2023-06-10T09:25:44;39.40;99.90
3684;DHT22;1858;48.716;9.648;2023-06-10T09:28:16;39.20;99.90
3684;DHT22;1858;48.716;9.648;2023-06-10T09:30:44;38.80;99.90
3684;DHT22;1858;48.716;9.648;2023-06-10T09:33:14;37.90;1.00
3684;DHT22;1858;48.716;9.648;2023-06-10T09:35:47;37.20;1.00
3684;DHT22;1858;48.716;9.648;2023-06-10T09:38:23;36.80;1.00
3684;DHT22;1858;48.716;9.648;2023-06-10T09:40:53;38.30;1.00
3684;DHT22;1858;48.716;9.648;2023-06-10T09:43:22;39.50;99.90
3684;DHT22;1858;48.716;9.648;2023-06-10T09:45:56;41.30;99.90
3684;DHT22;1858;48.716;9.648;2023-06-10T09:48:24;42.80;99.90
3684;DHT22;1858;48.716;9.648;2023-06-10T09:50:53;43.90;99.90
3684;DHT22;1858;48.716;9.648;2023-06-10T09:53:21;44.80;99.90
3684;DHT22;1858;48.716;9.648;2023-06-10T09:55:51;44.60;99.90
3684;DHT22;1858;48.716;9.648;2023-06-10T09:58:40;44.60;99.90
3684;DHT22;1858;48.716;9.648;2023-06-10T10:04:23;45.40;99.90
3684;DHT22;1858;48.716;9.648;2023-06-10T10:06:49;46.00;99.90
3684;DHT22;1858;48.716;9.648;2023-06-10T10:09:18;45.20;99.90
3684;DHT22;1858;48.716;9.648;2023-06-10T10:11:47;43.60;99.90
3684;DHT22;1858;48.716;9.648;2023-06-10T10:14:17;43.70;99.90
3684;DHT22;1858;48.716;9.648;2023-06-10T10:17:07;43.00;99.90
3684;DHT22;1858;48.716;9.648;2023-06-10T10:19:40;43.00;99.90
3684;DHT22;1858;48.716;9.648;2023-06-10T10:22:08;44.00;99.90
3684;DHT22;1858;48.716;9.648;2023-06-10T10:24:45;44.60;99.90
3684;DHT22;1858;48.716;9.648;2023-06-10T10:27:18;44.90;99.90
3684;DHT22;1858;48.716;9.648;2023-06-10T10:29:49;43.70;99.90
3684;DHT22;1858;48.716;9.648;2023-06-10T10:32:19;42.50;99.90
3684;DHT22;1858;48.716;9.648;2023-06-10T10:35:09;40.60;99.90
3684;DHT22;1858;48.716;9.648;2023-06-10T10:37:23;40.10;99.90
3684;DHT22;1858;48.716;9.648;2023-06-10T10:39:51;40.10;99.90
3684;DHT22;1858;48.716;9.648;2023-06-10T10:42:20;40.00;99.90
3684;DHT22;1858;48.716;9.648;2023-06-10T10:44:49;39.50;99.90
3684;DHT22;1858;48.716;9.648;2023-06-10T10:47:21;38.40;99.90
3684;DHT22;1858;48.716;9.648;2023-06-10T10:49:51;37.70;1.00
3684;DHT22;1858;48.716;9.648;2023-06-10T10:52:21;37.40;99.90
3684;DHT22;1858;48.716;9.648;2023-06-10T10:55:12;37.30;1.00
3684;DHT22;1858;48.716;9.648;2023-06-10T10:57:39;37.70;1.00
3684;DHT22;1858;48.716;9.648;2023-06-10T11:00:09;38.10;1.00
3684;DHT22;1858;48.716;9.648;2023-06-10T11:02:45;38.50;99.90
3684;DHT22;1858;48.716;9.648;2023-06-10T11:05:16;38.40;99.90
3684;DHT22;1858;48.716;9.648;2023-06-10T11:07:55;37.60;99.90
3684;DHT22;1858;48.716;9.648;2023-06-10T11:10:31;37.00;99.90
3684;DHT22;1858;48.716;9.648;2023-06-10T11:15:50;36.00;1.00
3684;DHT22;1858;48.716;9.648;2023-06-10T11:18:38;35.60;1.00
3684;DHT22;1858;48.716;9.648;2023-06-10T11:23:57;34.30;1.00
3684;DHT22;1858;48.716;9.648;2023-06-10T11:29:04;33.90;1.00
3684;DHT22;1858;48.716;9.648;2023-06-10T11:31:43;33.90;1.00
3684;DHT22;1858;48.716;9.648;2023-06-10T11:34:13;34.00;1.00
3684;DHT22;1858;48.716;9.648;2023-06-10T11:36:43;33.90;1.00
3684;DHT22;1858;48.716;9.648;2023-06-10T11:39:13;33.60;1.00
3684;DHT22;1858;48.716;9.648;2023-06-10T11:41:41;33.20;1.00
3684;DHT22;1858;48.716;9.648;2023-06-10T11:44:11;33.10;1.00
3684;DHT22;1858;48.716;9.648;2023-06-10T11:46:41;33.00;1.00
3684;DHT22;1858;48.716;9.648;2023-06-10T11:52:05;33.10;1.00
3684;DHT22;1858;48.716;9.648;2023-06-10T11:54:34;32.70;1.00
3684;DHT22;1858;48.716;9.648;2023-06-10T11:57:03;32.40;1.00
3684;DHT22;1858;48.716;9.648;2023-06-10T11:59:31;32.20;1.00
3684;DHT22;1858;48.716;9.648;2023-06-10T12:02:01;32.10;1.00
3684;DHT22;1858;48.716;9.648;2023-06-10T12:04:30;32.20;1.00
3684;DHT22;1858;48.716;9.648;2023-06-10T12:06:58;31.90;1.00
3684;DHT22;1858;48.716;9.648;2023-06-10T12:09:29;31.70;1.00
3684;DHT22;1858;48.716;9.648;2023-06-10T12:12:00;31.60;1.00
3684;DHT22;1858;48.716;9.648;2023-06-10T12:14:55;31.60;1.00
3684;DHT22;1858;48.716;9.648;2023-06-10T12:20:32;31.80;1.00
3684;DHT22;1858;48.716;9.648;2023-06-10T12:23:08;31.90;1.00
3684;DHT22;1858;48.716;9.648;2023-06-10T12:25:32;31.50;1.00
3684;DHT22;1858;48.716;9.648;2023-06-10T12:28:01;31.50;1.00
3684;DHT22;1858;48.716;9.648;2023-06-10T12:30:31;31.30;1.00
3684;DHT22;1858;48.716;9.648;2023-06-10T12:32:59;31.20;1.00
3684;DHT22;1858;48.716;9.648;2023-06-10T12:35:28;30.90;1.00
3684;DHT22;1858;48.716;9.648;2023-06-10T12:41:02;30.60;1.00
3684;DHT22;1858;48.716;9.648;2023-06-10T12:43:33;30.40;1.00
3684;DHT22;1858;48.716;9.648;2023-06-10T12:46:11;30.40;1.00
3684;DHT22;1858;48.716;9.648;2023-06-10T12:48:51;30.50;1.00
3684;DHT22;1858;48.716;9.648;2023-06-10T12:51:39;30.70;1.00
3684;DHT22;1858;48.716;9.648;2023-06-10T12:54:08;30.60;1.00
3684;DHT22;1858;48.716;9.648;2023-06-10T12:56:36;30.60;1.00
3684;DHT22;1858;48.716;9.648;2023-06-10T12:59:06;30.60;1.00
3684;DHT22;1858;48.716;9.648;2023-06-10T13:01:34;30.40;1.00
3684;DHT22;1858;48.716;9.648;2023-06-10T13:04:05;30.20;1.00
3684;DHT22;1858;48.716;9.648;2023-06-10T13:06:37;30.20;1.00
3684;DHT22;1858;48.716;9.648;2023-06-10T13:09:06;30.30;1.00
3684;DHT22;1858;48.716;9.648;2023-06-10T13:11:35;30.50;1.00
3684;DHT22;1858;48.716;9.648;2023-06-10T13:14:05;30.40;1.00
3684;DHT22;1858;48.716;9.648;2023-06-10T13:16:33;30.50;1.00
3684;DHT22;1858;48.716;9.648;2023-06-10T13:19:02;30.60;1.00
3684;DHT22;1858;48.716;9.648;2023-06-10T13:21:33;30.60;1.00
3684;DHT22;1858;48.716;9.648;2023-06-10T13:24:01;30.50;1.00
3684;DHT22;1858;48.716;9.648;2023-06-10T13:26:30;30.50;1.00
3684;DHT22;1858;48.716;9.648;2023-06-10T13:29:18;30.40;1.00
3684;DHT22;1858;48.716;9.648;2023-06-10T13:31:47;30.10;1.00
3684;DHT22;1858;48.716;9.648;2023-06-10T13:34:15;29.90;1.00
3684;DHT22;1858;48.716;9.648;2023-06-10T13:36:44;29.90;1.00
3684;DHT22;1858;48.716;9.648;2023-06-10T13:39:12;29.70;1.00
3684;DHT22;1858;48.716;9.648;2023-06-10T13:42:01;29.30;1.00
3684;DHT22;1858;48.716;9.648;2023-06-10T13:44:29;29.10;1.00
3684;DHT22;1858;48.716;9.648;2023-06-10T13:46:59;29.00;1.00
3684;DHT22;1858;48.716;9.648;2023-06-10T13:49:28;28.90;1.00
3684;DHT22;1858;48.716;9.648;2023-06-10T13:51:57;28.90;1.00
3684;DHT22;1858;48.716;9.648;2023-06-10T13:54:25;29.10;1.00
3684;DHT22;1858;48.716;9.648;2023-06-10T13:56:54;29.20;1.00
3684;DHT22;1858;48.716;9.648;2023-06-10T13:59:23;29.20;1.00
3684;DHT22;1858;48.716;9.648;2023-06-10T14:01:51;29.30;1.00
3684;DHT22;1858;48.716;9.648;2023-06-10T14:04:20;29.40;1.00
3684;DHT22;1858;48.716;9.648;2023-06-10T14:06:49;29.50;1.00
3684;DHT22;1858;48.716;9.648;2023-06-10T14:09:17;29.60;1.00
3684;DHT22;1858;48.716;9.648;2023-06-10T14:11:46;29.50;1.00
3684;DHT22;1858;48.716;9.648;2023-06-10T14:14:15;29.30;1.00
3684;DHT22;1858;48.716;9.648;2023-06-10T14:16:44;29.20;1.00
3684;DHT22;1858;48.716;9.648;2023-06-10T14:19:13;29.20;1.00
3684;DHT22;1858;48.716;9.648;2023-06-10T14:21:41;29.40;1.00
3684;DHT22;1858;48.716;9.648;2023-06-10T14:24:09;29.50;1.00
3684;DHT22;1858;48.716;9.648;2023-06-10T14:26:38;29.30;1.00
3684;DHT22;1858;48.716;9.648;2023-06-10T14:29:06;29.30;1.00
3684;DHT22;1858;48.716;9.648;2023-06-10T14:31:36;29.40;1.00
3684;DHT22;1858;48.716;9.648;2023-06-10T14:34:04;29.40;1.00
3684;DHT22;1858;48.716;9.648;2023-06-10T14:39:23;29.70;1.00
3684;DHT22;1858;48.716;9.648;2023-06-10T14:41:52;29.60;1.00
3684;DHT22;1858;48.716;9.648;2023-06-10T14:44:20;29.50;1.00
3684;DHT22;1858;48.716;9.648;2023-06-10T14:46:48;29.60;1.00
3684;DHT22;1858;48.716;9.648;2023-06-10T14:49:17;29.70;1.00
3684;DHT22;1858;48.716;9.648;2023-06-10T14:51:46;29.60;1.00
3684;DHT22;1858;48.716;9.648;2023-06-10T14:54:16;29.40;1.00
3684;DHT22;1858;48.716;9.648;2023-06-10T14:56:44;29.30;1.00
3684;DHT22;1858;48.716;9.648;2023-06-10T14:59:13;29.30;1.00
3684;DHT22;1858;48.716;9.648;2023-06-10T15:01:41;29.30;1.00
3684;DHT22;1858;48.716;9.648;2023-06-10T15:04:10;29.30;1.00
3684;DHT22;1858;48.716;9.648;2023-06-10T15:06:38;29.30;1.00
3684;DHT22;1858;48.716;9.648;2023-06-10T15:09:07;29.20;1.00
3684;DHT22;1858;48.716;9.648;2023-06-10T15:11:35;29.00;1.00
3684;DHT22;1858;48.716;9.648;2023-06-10T15:14:05;28.90;1.00
3684;DHT22;1858;48.716;9.648;2023-06-10T15:16:34;28.80;1.00
3684;DHT22;1858;48.716;9.648;2023-06-10T15:19:02;28.80;1.00
3684;DHT22;1858;48.716;9.648;2023-06-10T15:21:30;28.80;1.00
3684;DHT22;1858;48.716;9.648;2023-06-10T15:23:59;28.90;1.00
3684;DHT22;1858;48.716;9.648;2023-06-10T15:26:27;28.90;1.00
3684;DHT22;1858;48.716;9.648;2023-06-10T15:28:55;29.00;1.00
3684;DHT22;1858;48.716;9.648;2023-06-10T15:31:24;29.00;1.00
3684;DHT22;1858;48.716;9.648;2023-06-10T15:33:52;29.00;1.00
3684;DHT22;1858;48.716;9.648;2023-06-10T15:36:21;29.00;1.00
3684;DHT22;1858;48.716;9.648;2023-06-10T15:38:49;28.90;1.00
3684;DHT22;1858;48.716;9.648;2023-06-10T15:41:18;28.70;1.00
3684;DHT22;1858;48.716;9.648;2023-06-10T15:43:46;28.50;1.00
3684;DHT22;1858;48.716;9.648;2023-06-10T15:46:15;28.40;1.00
3684;DHT22;1858;48.716;9.648;2023-06-10T15:48:43;28.50;1.00
3684;DHT22;1858;48.716;9.648;2023-06-10T15:51:12;28.50;1.00
3684;DHT22;1858;48.716;9.648;2023-06-10T15:53:41;28.50;1.00
3684;DHT22;1858;48.716;9.648;2023-06-10T15:56:09;28.50;1.00
3684;DHT22;1858;48.716;9.648;2023-06-10T15:58:38;28.40;1.00
3684;DHT22;1858;48.716;9.648;2023-06-10T16:01:06;28.30;1.00
3684;DHT22;1858;48.716;9.648;2023-06-10T16:03:36;28.30;1.00
3684;DHT22;1858;48.716;9.648;2023-06-10T16:06:05;28.50;1.00
3684;DHT22;1858;48.716;9.648;2023-06-10T16:08:33;28.40;1.00
3684;DHT22;1858;48.716;9.648;2023-06-10T16:11:02;28.30;1.00
3684;DHT22;1858;48.716;9.648;2023-06-10T16:13:33;28.30;1.00
3684;DHT22;1858;48.716;9.648;2023-06-10T16:16:01;28.30;1.00
3684;DHT22;1858;48.716;9.648;2023-06-10T16:18:30;28.30;1.00
3684;DHT22;1858;48.716;9.648;2023-06-10T16:20:58;28.40;1.00
3684;DHT22;1858;48.716;9.648;2023-06-10T16:23:27;28.40;1.00
3684;DHT22;1858;48.716;9.648;2023-06-10T16:25:55;28.30;1.00
3684;DHT22;1858;48.716;9.648;2023-06-10T16:28:23;28.10;1.00
3684;DHT22;1858;48.716;9.648;2023-06-10T16:30:52;28.00;1.00
3684;DHT22;1858;48.716;9.648;2023-06-10T16:33:20;28.00;1.00
3684;DHT22;1858;48.716;9.648;2023-06-10T16:35:49;27.90;1.00
3684;DHT22;1858;48.716;9.648;2023-06-10T16:38:18;27.70;1.00
3684;DHT22;1858;48.716;9.648;2023-06-10T16:40:47;27.70;1.00
3684;DHT22;1858;48.716;9.648;2023-06-10T16:43:15;27.80;1.00
3684;DHT22;1858;48.716;9.648;2023-06-10T16:45:44;27.80;1.00
3684;DHT22;1858;48.716;9.648;2023-06-10T16:48:12;27.80;1.00
3684;DHT22;1858;48.716;9.648;2023-06-10T16:50:41;27.70;1.00
3684;DHT22;1858;48.716;9.648;2023-06-10T16:53:09;27.60;1.00
3684;DHT22;1858;48.716;9.648;2023-06-10T16:55:38;27.50;1.00
3684;DHT22;1858;48.716;9.648;2023-06-10T16:58:08;27.40;1.00
3684;DHT22;1858;48.716;9.648;2023-06-10T17:00:37;27.30;1.00
3684;DHT22;1858;48.716;9.648;2023-06-10T17:03:05;27.30;1.00
3684;DHT22;1858;48.716;9.648;2023-06-10T17:05:35;27.10;1.00
3684;DHT22;1858;48.716;9.648;2023-06-10T17:08:04;27.10;1.00